Portada
METAR-TAF:

METAR-TAF

Aeroports :

N'Djamena, Txad

latitud: 12-08N, longitud: 015-02E, altitud: 295 m

Observació

L'informe es va fer fa 1 hora i 3 minuts, a les 00:00 UTC
Vent 9 kt del Nord
Temperatura 20°C
Humitat 23%
Pressió 1013 hPa
Visibilitat: 4500 m
Pols estès

METAR: FTTJ 230000Z 35009KT 4500 DU NSC 20/M02 Q1013 NOSIG

Hora: 02:03 (01:03 UTC)

Pronòstic

L'informe es va fer fa 2 hores i 3 minuts, a les 23:00 UTC
Pronòstic vàlid del 23 a les 00 UTC al 24 a les 06 UTC
Vent 10 kt del Nord/Nord-Oest
Visibilitat: 4000 m
Pols estès
Temporalment
l' 23 a les 16 UTC al 23 a les 19 UTC
Visibilitat: 2000 m

TAF: FTTJ 222300Z 2300/2406 34010KT 4000 DU NSC TEMPO 2316/2319 2000

Observacions i pronòstics meteorològics de més de 4000 aeroports (METAR i TAF).

Les estacions disponibles són els punts grocs i vermells al mapa.

Posi el ratolí al punt desitjat per veure el nom de l'estació.

Feu clic per veure les observacions i els pronòstics meteorològics.

Per canviar el mapa: feu clic els botons verds amb una creu de color negre per apropar; al botó verd amb un guió per allunyar la imatge; o en les fletxes verdes per a mapes adjacents.


METAR-TAF: